Moody Air Force Base
KVAD : rendu visible

Aérodrome :











RETROUVEZ-NOUS SUR...

 
LOGIN :

S'inscrire | Disclaimer

   EN    FR    IT 

 









Légende :    VFR   VFR Marginal   IFR   IFR Intensif   IFR Très Intensif
Visi : 
Plafond : 
>= 8 km
>= 3000ft
5 à 8 km
1000 à 3000 ft
1500m à 5 km
500 à 1000 ft
800 à 1500m
200 à 500 ft
< 800m
< 200 ft
Symboles :   Orages  Brouillard  Fortes neiges  Fortes précipitations  Vent > 20 kt






- Altitude de l'aérodrome : 233 ft


KVAD - Moody Air Force Base

DERNIER METAR :
  • 110622Z AUTO 32011KT 10SM OVC007 13/11 A3014 RMK AO2 CIG 007V009 SLP207 PWINO $

METARs EXPIRÉS :
  • 110604Z AUTO 34011KT 10SM OVC009 13/11 A3013 RMK AO2 SLP204 PWINO $
  • 110556Z AUTO 34008KT 10SM OVC008 13/12 A3013 RMK AO2 SLP204 T01330115 10215 20133 52015 PWINO $
  • 110540Z AUTO 34008KT 10SM OVC007 14/12 A3012 RMK AO2 SLP201 PWINO $
  • 110514Z AUTO 33008KT 10SM OVC006 14/12 A3012 RMK AO2 SLP201 PWINO $
  • 110456Z AUTO 33010KT 10SM OVC007 14/13 A3012 RMK AO2 SLP201 T01410130 402820141 PWINO $
  • 110425Z AUTO 32013KT 10SM OVC007 15/14 A3011 RMK AO2 CIG 007V009 SLP197 PWINO $
  • 110356Z AUTO 32011KT 10SM SCT007 SCT049 20/19 A3009 RMK AO2 SLP190 T02030186 PWINO $
  • 110338Z AUTO 21005KT 10SM FEW010 SCT015 SCT030 BKN049 21/20 A3008 RMK AO2 SLP187 PWINO $

TAF AMD TAF KVAD
Valide du 11 à 03h jusqu'au 12 à 07h UTC


110330Z 1103/1207 20009KT 8000 -RA BKN010 OVC020 QNH3001INS
BECMG 1104/1105 23006KT 8000 BR OVC004 QNH3006INS
BECMG 1108/1109 34010KT 9999 NSW OVC003 QNH3012INS
BECMG 1112/1113 36009KT 9999 BKN015 QNH3026INS
BECMG 1116/1117 01009KT 9999 OVC020 QNH3032INS
TEMPO 1118/1123 01009KT 8000 -SHRA OVC020 TX16/1119Z TN12/1113Z



MET'MAP, la Météo Aéronautique d'un coup d'oeil ! - Copyright ORBIFLY Décembre 2007 - Disclaimer

ORBIFLY MET'MAP TEAM :

Programmation & Développement : Alexandra Zaïnal
Sur une idée originale de : Baudouin d'Aumeries
Assistance à la programmation : Marc-Olivier Méhu
Soutien technique & logistique : Manuel Goepfert

Contact : metmap@orbifly.com




SOURCES & CREDITS :

   NOAA       Earth
Advisory